sensor_id;sensor_type;location;lat;lon;timestamp;pressure;altitude;pressure_sealevel;temperature;humidity
43814;BME280;29669;55.706;37.656;2023-07-13T00:00:30;99027.31;;;15.17;nan
43814;BME280;29669;55.706;37.656;2023-07-13T00:02:59;99032.31;;;15.19;nan
43814;BME280;29669;55.706;37.656;2023-07-13T00:05:27;99019.88;;;15.14;nan
43814;BME280;29669;55.706;37.656;2023-07-13T00:07:55;99026.50;;;15.17;nan
43814;BME280;29669;55.706;37.656;2023-07-13T00:10:22;99029.72;;;15.19;nan
43814;BME280;29669;55.706;37.656;2023-07-13T00:12:50;99028.91;;;15.18;nan
43814;BME280;29669;55.706;37.656;2023-07-13T00:15:24;99031.94;;;15.15;nan
43814;BME280;29669;55.706;37.656;2023-07-13T00:17:54;99037.38;;;15.14;nan
43814;BME280;29669;55.706;37.656;2023-07-13T00:20:24;99033.38;;;15.11;nan
43814;BME280;29669;55.706;37.656;2023-07-13T00:22:53;99037.19;;;15.08;nan
43814;BME280;29669;55.706;37.656;2023-07-13T00:25:24;99041.03;;;15.06;nan
43814;BME280;29669;55.706;37.656;2023-07-13T00:27:53;99032.22;;;15.00;nan
43814;BME280;29669;55.706;37.656;2023-07-13T00:30:21;99022.59;;;14.94;nan
43814;BME280;29669;55.706;37.656;2023-07-13T00:32:50;99041.28;;;14.91;nan
43814;BME280;29669;55.706;37.656;2023-07-13T00:35:30;99033.06;;;14.88;nan
43814;BME280;29669;55.706;37.656;2023-07-13T00:37:58;99034.91;;;14.87;nan
43814;BME280;29669;55.706;37.656;2023-07-13T00:40:25;99032.47;;;14.86;nan
43814;BME280;29669;55.706;37.656;2023-07-13T00:42:53;99031.88;;;14.84;nan
43814;BME280;29669;55.706;37.656;2023-07-13T00:47:52;99028.69;;;14.82;nan
43814;BME280;29669;55.706;37.656;2023-07-13T00:50:22;99031.88;;;14.84;nan
43814;BME280;29669;55.706;37.656;2023-07-13T00:52:56;99039.31;;;14.87;nan
43814;BME280;29669;55.706;37.656;2023-07-13T00:55:25;99038.31;;;14.88;nan
43814;BME280;29669;55.706;37.656;2023-07-13T00:57:53;99036.50;;;14.88;nan
43814;BME280;29669;55.706;37.656;2023-07-13T01:00:22;99031.88;;;14.90;nan
43814;BME280;29669;55.706;37.656;2023-07-13T01:02:50;99028.22;;;14.91;nan
43814;BME280;29669;55.706;37.656;2023-07-13T01:05:21;99029.41;;;14.95;nan
43814;BME280;29669;55.706;37.656;2023-07-13T01:07:51;99022.38;;;14.96;nan
43814;BME280;29669;55.706;37.656;2023-07-13T01:10:23;99024.56;;;14.99;nan
43814;BME280;29669;55.706;37.656;2023-07-13T01:12:52;99025.38;;;14.99;nan
43814;BME280;29669;55.706;37.656;2023-07-13T01:15:47;99009.72;;;14.99;nan
43814;BME280;29669;55.706;37.656;2023-07-13T01:18:21;99016.56;;;15.00;nan
43814;BME280;29669;55.706;37.656;2023-07-13T01:20:57;99016.94;;;15.04;nan
43814;BME280;29669;55.706;37.656;2023-07-13T01:23:26;99016.56;;;15.00;nan
43814;BME280;29669;55.706;37.656;2023-07-13T01:25:56;99015.75;;;15.00;nan
43814;BME280;29669;55.706;37.656;2023-07-13T01:28:25;99018.13;;;15.01;nan
43814;BME280;29669;55.706;37.656;2023-07-13T01:30:56;99010.50;;;15.00;nan
43814;BME280;29669;55.706;37.656;2023-07-13T01:33:25;99016.34;;;15.02;nan
43814;BME280;29669;55.706;37.656;2023-07-13T01:35:52;99017.34;;;15.01;nan
43814;BME280;29669;55.706;37.656;2023-07-13T01:38:22;99007.69;;;15.01;nan
43814;BME280;29669;55.706;37.656;2023-07-13T01:40:51;99014.09;;;15.05;nan
43814;BME280;29669;55.706;37.656;2023-07-13T01:43:20;99013.50;;;15.03;nan
43814;BME280;29669;55.706;37.656;2023-07-13T01:45:48;99003.28;;;15.02;nan
43814;BME280;29669;55.706;37.656;2023-07-13T01:48:16;99008.50;;;15.02;nan
43814;BME280;29669;55.706;37.656;2023-07-13T01:50:44;99006.28;;;14.99;nan
43814;BME280;29669;55.706;37.656;2023-07-13T01:53:12;99013.34;;;14.98;nan
43814;BME280;29669;55.706;37.656;2023-07-13T01:55:41;99001.88;;;14.99;nan
43814;BME280;29669;55.706;37.656;2023-07-13T01:58:09;98996.63;;;14.99;nan
43814;BME280;29669;55.706;37.656;2023-07-13T02:00:38;99004.09;;;15.02;nan
43814;BME280;29669;55.706;37.656;2023-07-13T02:03:06;99001.25;;;15.04;nan
43814;BME280;29669;55.706;37.656;2023-07-13T02:05:33;99000.66;;;15.02;nan
43814;BME280;29669;55.706;37.656;2023-07-13T02:08:01;98998.03;;;15.02;nan
43814;BME280;29669;55.706;37.656;2023-07-13T02:10:31;98997.81;;;15.03;nan
43814;BME280;29669;55.706;37.656;2023-07-13T02:12:59;98991.56;;;15.04;nan
43814;BME280;29669;55.706;37.656;2023-07-13T02:15:28;98994.00;;;15.06;nan
43814;BME280;29669;55.706;37.656;2023-07-13T02:17:56;98986.34;;;15.04;nan
43814;BME280;29669;55.706;37.656;2023-07-13T02:20:44;98990.00;;;15.03;nan
43814;BME280;29669;55.706;37.656;2023-07-13T02:23:12;98992.94;;;15.14;nan
43814;BME280;29669;55.706;37.656;2023-07-13T02:25:40;98994.13;;;15.18;nan
43814;BME280;29669;55.706;37.656;2023-07-13T02:28:08;98986.06;;;15.19;nan
43814;BME280;29669;55.706;37.656;2023-07-13T02:30:36;98989.44;;;15.26;nan
43814;BME280;29669;55.706;37.656;2023-07-13T02:33:04;98985.78;;;15.34;nan
43814;BME280;29669;55.706;37.656;2023-07-13T02:35:32;98974.47;;;15.40;nan
43814;BME280;29669;55.706;37.656;2023-07-13T02:38:00;98972.84;;;15.45;nan
43814;BME280;29669;55.706;37.656;2023-07-13T02:40:27;98980.06;;;15.50;nan
43814;BME280;29669;55.706;37.656;2023-07-13T02:42:55;98978.22;;;15.50;nan
43814;BME280;29669;55.706;37.656;2023-07-13T02:45:23;98985.06;;;15.51;nan
43814;BME280;29669;55.706;37.656;2023-07-13T02:47:50;98977.84;;;15.47;nan
43814;BME280;29669;55.706;37.656;2023-07-13T02:50:18;98976.41;;;15.51;nan
43814;BME280;29669;55.706;37.656;2023-07-13T02:52:46;98977.22;;;15.51;nan
43814;BME280;29669;55.706;37.656;2023-07-13T02:55:14;98982.03;;;15.54;nan
43814;BME280;29669;55.706;37.656;2023-07-13T02:57:42;98987.63;;;15.58;nan
43814;BME280;29669;55.706;37.656;2023-07-13T03:00:10;98980.81;;;15.57;nan
43814;BME280;29669;55.706;37.656;2023-07-13T03:02:38;98973.94;;;15.56;nan
43814;BME280;29669;55.706;37.656;2023-07-13T03:05:07;98977.16;;;15.58;nan
43814;BME280;29669;55.706;37.656;2023-07-13T03:07:35;98976.16;;;15.59;nan
43814;BME280;29669;55.706;37.656;2023-07-13T03:10:04;98971.16;;;15.57;nan
43814;BME280;29669;55.706;37.656;2023-07-13T03:12:41;98963.06;;;15.59;nan
43814;BME280;29669;55.706;37.656;2023-07-13T03:15:16;98967.06;;;15.61;nan
43814;BME280;29669;55.706;37.656;2023-07-13T03:17:45;98972.28;;;15.61;nan
43814;BME280;29669;55.706;37.656;2023-07-13T03:20:13;98967.28;;;15.60;nan
43814;BME280;29669;55.706;37.656;2023-07-13T03:22:41;98973.09;;;15.62;nan
43814;BME280;29669;55.706;37.656;2023-07-13T03:25:09;98974.72;;;15.63;nan
43814;BME280;29669;55.706;37.656;2023-07-13T03:27:38;98973.69;;;15.64;nan
43814;BME280;29669;55.706;37.656;2023-07-13T03:30:08;98972.25;;;15.68;nan
43814;BME280;29669;55.706;37.656;2023-07-13T03:32:37;98977.84;;;15.71;nan
43814;BME280;29669;55.706;37.656;2023-07-13T03:35:05;98985.06;;;15.76;nan
43814;BME280;29669;55.706;37.656;2023-07-13T03:37:32;98982.47;;;15.76;nan
43814;BME280;29669;55.706;37.656;2023-07-13T03:40:00;98981.41;;;15.77;nan
43814;BME280;29669;55.706;37.656;2023-07-13T03:42:30;98981.00;;;15.80;nan
43814;BME280;29669;55.706;37.656;2023-07-13T03:44:58;98990.19;;;15.89;nan
43814;BME280;29669;55.706;37.656;2023-07-13T03:47:26;98983.19;;;16.01;nan
43814;BME280;29669;55.706;37.656;2023-07-13T03:49:54;98992.41;;;16.10;nan
43814;BME280;29669;55.706;37.656;2023-07-13T03:52:22;98988.91;;;16.16;nan
43814;BME280;29669;55.706;37.656;2023-07-13T03:54:51;98983.25;;;16.19;nan
43814;BME280;29669;55.706;37.656;2023-07-13T03:57:21;98997.84;;;16.27;nan
43814;BME280;29669;55.706;37.656;2023-07-13T03:59:48;98986.81;;;16.25;nan
43814;BME280;29669;55.706;37.656;2023-07-13T04:02:16;98989.56;;;16.30;nan
43814;BME280;29669;55.706;37.656;2023-07-13T04:04:45;98992.34;;;16.35;nan
43814;BME280;29669;55.706;37.656;2023-07-13T04:07:13;98989.22;;;16.44;nan
43814;BME280;29669;55.706;37.656;2023-07-13T04:09:41;98995.66;;;16.48;nan
43814;BME280;29669;55.706;37.656;2023-07-13T04:12:10;98989.09;;;16.57;nan
43814;BME280;29669;55.706;37.656;2023-07-13T04:14:38;98995.25;;;16.63;nan
43814;BME280;29669;55.706;37.656;2023-07-13T04:17:06;98995.63;;;16.66;nan
43814;BME280;29669;55.706;37.656;2023-07-13T04:19:33;98992.78;;;16.68;nan
43814;BME280;29669;55.706;37.656;2023-07-13T04:22:01;98993.81;;;16.67;nan
43814;BME280;29669;55.706;37.656;2023-07-13T04:24:29;98987.06;;;16.59;nan
43814;BME280;29669;55.706;37.656;2023-07-13T04:26:57;98994.63;;;16.49;nan
43814;BME280;29669;55.706;37.656;2023-07-13T04:29:27;98994.00;;;16.47;nan
43814;BME280;29669;55.706;37.656;2023-07-13T04:31:54;98992.34;;;16.53;nan
43814;BME280;29669;55.706;37.656;2023-07-13T04:34:22;98992.13;;;16.54;nan
43814;BME280;29669;55.706;37.656;2023-07-13T04:36:50;98988.88;;;16.59;nan
43814;BME280;29669;55.706;37.656;2023-07-13T04:39:18;98986.94;;;16.66;nan
43814;BME280;29669;55.706;37.656;2023-07-13T04:41:46;98990.97;;;16.68;nan
43814;BME280;29669;55.706;37.656;2023-07-13T04:44:13;98984.56;;;16.64;nan
43814;BME280;29669;55.706;37.656;2023-07-13T04:46:41;98981.47;;;16.67;nan
43814;BME280;29669;55.706;37.656;2023-07-13T04:49:09;98968.38;;;16.67;nan
43814;BME280;29669;55.706;37.656;2023-07-13T04:51:37;98968.47;;;16.61;nan
43814;BME280;29669;55.706;37.656;2023-07-13T04:54:05;98976.47;;;16.66;nan
43814;BME280;29669;55.706;37.656;2023-07-13T04:56:35;98976.19;;;16.74;nan
43814;BME280;29669;55.706;37.656;2023-07-13T04:59:02;98988.28;;;16.86;nan
43814;BME280;29669;55.706;37.656;2023-07-13T05:01:30;98986.31;;;17.00;nan
43814;BME280;29669;55.706;37.656;2023-07-13T05:03:58;98983.16;;;17.10;nan
43814;BME280;29669;55.706;37.656;2023-07-13T05:06:26;98991.31;;;17.31;nan
43814;BME280;29669;55.706;37.656;2023-07-13T05:08:54;98991.16;;;17.56;nan
43814;BME280;29669;55.706;37.656;2023-07-13T05:11:22;98991.06;;;17.74;nan
43814;BME280;29669;55.706;37.656;2023-07-13T05:13:50;98994.59;;;18.03;nan
43814;BME280;29669;55.706;37.656;2023-07-13T05:16:21;98989.44;;;18.31;nan
43814;BME280;29669;55.706;37.656;2023-07-13T05:18:49;98988.78;;;18.75;nan
43814;BME280;29669;55.706;37.656;2023-07-13T05:21:17;98980.09;;;19.03;nan
43814;BME280;29669;55.706;37.656;2023-07-13T05:23:45;98984.75;;;19.29;nan
43814;BME280;29669;55.706;37.656;2023-07-13T05:26:12;98994.88;;;19.48;nan
43814;BME280;29669;55.706;37.656;2023-07-13T05:28:40;99002.25;;;19.35;nan
43814;BME280;29669;55.706;37.656;2023-07-13T05:31:09;98988.97;;;19.13;nan
43814;BME280;29669;55.706;37.656;2023-07-13T05:33:37;98988.63;;;19.10;nan
43814;BME280;29669;55.706;37.656;2023-07-13T05:36:05;98992.38;;;19.14;nan
43814;BME280;29669;55.706;37.656;2023-07-13T05:38:33;98986.66;;;19.17;nan
43814;BME280;29669;55.706;37.656;2023-07-13T05:41:00;98972.63;;;19.11;nan
43814;BME280;29669;55.706;37.656;2023-07-13T05:43:34;98986.75;;;19.22;nan
43814;BME280;29669;55.706;37.656;2023-07-13T05:46:02;98990.16;;;19.34;nan
43814;BME280;29669;55.706;37.656;2023-07-13T05:48:30;98982.81;;;19.36;nan
43814;BME280;29669;55.706;37.656;2023-07-13T05:50:57;98976.44;;;19.32;nan
43814;BME280;29669;55.706;37.656;2023-07-13T05:53:25;98979.97;;;19.26;nan
43814;BME280;29669;55.706;37.656;2023-07-13T05:55:54;98984.69;;;19.24;nan
43814;BME280;29669;55.706;37.656;2023-07-13T05:58:22;98976.31;;;19.27;nan
43814;BME280;29669;55.706;37.656;2023-07-13T06:00:59;98978.00;;;19.33;nan
43814;BME280;29669;55.706;37.656;2023-07-13T06:03:27;98971.72;;;19.34;nan
43814;BME280;29669;55.706;37.656;2023-07-13T06:05:55;98975.50;;;19.38;nan
43814;BME280;29669;55.706;37.656;2023-07-13T06:08:22;98979.38;;;19.52;nan
43814;BME280;29669;55.706;37.656;2023-07-13T06:10:50;98982.50;;;19.65;nan
43814;BME280;29669;55.706;37.656;2023-07-13T06:13:18;98973.78;;;19.82;nan
43814;BME280;29669;55.706;37.656;2023-07-13T06:15:49;98974.75;;;19.92;nan
43814;BME280;29669;55.706;37.656;2023-07-13T06:18:17;98969.28;;;20.15;nan
43814;BME280;29669;55.706;37.656;2023-07-13T06:20:45;98967.47;;;20.37;nan
43814;BME280;29669;55.706;37.656;2023-07-13T06:23:13;98961.94;;;20.60;nan
43814;BME280;29669;55.706;37.656;2023-07-13T06:25:40;98959.09;;;20.89;nan
43814;BME280;29669;55.706;37.656;2023-07-13T06:28:08;98949.13;;;20.96;nan
43814;BME280;29669;55.706;37.656;2023-07-13T06:30:38;98950.34;;;21.10;nan
43814;BME280;29669;55.706;37.656;2023-07-13T06:33:07;98949.44;;;21.26;nan
43814;BME280;29669;55.706;37.656;2023-07-13T06:35:34;98949.94;;;21.23;nan
43814;BME280;29669;55.706;37.656;2023-07-13T06:38:02;98947.72;;;21.41;nan
43814;BME280;29669;55.706;37.656;2023-07-13T06:40:30;98934.41;;;21.63;nan
43814;BME280;29669;55.706;37.656;2023-07-13T06:42:58;98947.25;;;21.86;nan
43814;BME280;29669;55.706;37.656;2023-07-13T06:45:26;98945.22;;;22.03;nan
43814;BME280;29669;55.706;37.656;2023-07-13T06:47:54;98942.66;;;22.13;nan
43814;BME280;29669;55.706;37.656;2023-07-13T06:50:21;98929.72;;;22.17;nan
43814;BME280;29669;55.706;37.656;2023-07-13T06:52:49;98939.47;;;22.11;nan
43814;BME280;29669;55.706;37.656;2023-07-13T06:55:17;98948.88;;;21.92;nan
43814;BME280;29669;55.706;37.656;2023-07-13T06:57:45;98948.50;;;21.79;nan
43814;BME280;29669;55.706;37.656;2023-07-13T07:00:13;98960.94;;;21.46;nan
43814;BME280;29669;55.706;37.656;2023-07-13T07:02:41;98951.38;;;21.09;nan
43814;BME280;29669;55.706;37.656;2023-07-13T07:05:09;98967.88;;;20.73;nan
43814;BME280;29669;55.706;37.656;2023-07-13T07:07:37;98951.56;;;20.54;nan
43814;BME280;29669;55.706;37.656;2023-07-13T07:10:05;98960.47;;;20.48;nan
43814;BME280;29669;55.706;37.656;2023-07-13T07:12:33;98958.75;;;20.37;nan
43814;BME280;29669;55.706;37.656;2023-07-13T07:15:01;98949.94;;;20.26;nan
43814;BME280;29669;55.706;37.656;2023-07-13T07:17:30;98950.19;;;20.08;nan
43814;BME280;29669;55.706;37.656;2023-07-13T07:19:59;98950.75;;;20.10;nan
43814;BME280;29669;55.706;37.656;2023-07-13T07:22:30;98951.69;;;20.42;nan
43814;BME280;29669;55.706;37.656;2023-07-13T07:24:58;98956.75;;;20.71;nan
43814;BME280;29669;55.706;37.656;2023-07-13T07:27:26;98952.75;;;20.90;nan
43814;BME280;29669;55.706;37.656;2023-07-13T07:29:56;98952.69;;;21.06;nan
43814;BME280;29669;55.706;37.656;2023-07-13T07:32:31;98958.81;;;21.12;nan
43814;BME280;29669;55.706;37.656;2023-07-13T07:35:19;98949.00;;;21.07;nan
43814;BME280;29669;55.706;37.656;2023-07-13T07:37:46;98950.34;;;21.10;nan
43814;BME280;29669;55.706;37.656;2023-07-13T07:40:16;98953.56;;;21.17;nan
43814;BME280;29669;55.706;37.656;2023-07-13T07:42:47;98958.72;;;21.02;nan
43814;BME280;29669;55.706;37.656;2023-07-13T07:45:15;98966.00;;;20.95;nan
43814;BME280;29669;55.706;37.656;2023-07-13T07:47:42;98969.28;;;21.02;nan
43814;BME280;29669;55.706;37.656;2023-07-13T07:50:10;98975.03;;;20.99;nan
43814;BME280;29669;55.706;37.656;2023-07-13T07:52:38;98975.38;;;20.86;nan
43814;BME280;29669;55.706;37.656;2023-07-13T07:55:07;98979.19;;;20.68;nan
43814;BME280;29669;55.706;37.656;2023-07-13T07:57:37;98971.25;;;20.46;nan
43814;BME280;29669;55.706;37.656;2023-07-13T08:00:09;98975.94;;;20.39;nan
43814;BME280;29669;55.706;37.656;2023-07-13T08:02:43;98976.75;;;20.23;nan
43814;BME280;29669;55.706;37.656;2023-07-13T08:05:14;98972.13;;;20.14;nan
43814;BME280;29669;55.706;37.656;2023-07-13T08:07:45;98975.41;;;20.04;nan
43814;BME280;29669;55.706;37.656;2023-07-13T08:10:13;98975.84;;;19.96;nan
43814;BME280;29669;55.706;37.656;2023-07-13T08:12:41;98977.28;;;19.87;nan
43814;BME280;29669;55.706;37.656;2023-07-13T08:15:29;98967.00;;;19.86;nan
43814;BME280;29669;55.706;37.656;2023-07-13T08:17:56;98976.97;;;19.84;nan
43814;BME280;29669;55.706;37.656;2023-07-13T08:20:24;98978.63;;;19.90;nan
43814;BME280;29669;55.706;37.656;2023-07-13T08:22:52;98988.78;;;19.98;nan
43814;BME280;29669;55.706;37.656;2023-07-13T08:25:20;98980.38;;;20.01;nan
43814;BME280;29669;55.706;37.656;2023-07-13T08:27:49;98976.41;;;19.98;nan
43814;BME280;29669;55.706;37.656;2023-07-13T08:30:17;98973.84;;;20.03;nan
43814;BME280;29669;55.706;37.656;2023-07-13T08:32:45;98977.63;;;20.12;nan
43814;BME280;29669;55.706;37.656;2023-07-13T08:35:13;98975.09;;;20.17;nan
43814;BME280;29669;55.706;37.656;2023-07-13T08:37:41;98988.59;;;20.21;nan
43814;BME280;29669;55.706;37.656;2023-07-13T08:40:10;98985.41;;;20.19;nan
43814;BME280;29669;55.706;37.656;2023-07-13T08:42:50;98974.13;;;20.07;nan
43814;BME280;29669;55.706;37.656;2023-07-13T08:45:47;98979.84;;;19.82;nan
43814;BME280;29669;55.706;37.656;2023-07-13T08:48:30;98970.94;;;19.50;nan
43814;BME280;29669;55.706;37.656;2023-07-13T08:53:47;98974.75;;;19.76;nan
43814;BME280;29669;55.706;37.656;2023-07-13T08:56:22;98987.34;;;19.90;nan
43814;BME280;29669;55.706;37.656;2023-07-13T08:59:02;98995.97;;;20.02;nan
43814;BME280;29669;55.706;37.656;2023-07-13T09:28:59;99019.81;;;19.46;50.89
43814;BME280;29669;55.706;37.656;2023-07-13T09:31:34;99019.88;;;19.34;51.26
43814;BME280;29669;55.706;37.656;2023-07-13T09:34:11;99021.88;;;19.16;51.96
43814;BME280;29669;55.706;37.656;2023-07-13T09:36:41;99026.50;;;19.09;52.67
43814;BME280;29669;55.706;37.656;2023-07-13T09:39:29;99040.13;;;19.06;53.06
43814;BME280;29669;55.706;37.656;2023-07-13T09:42:17;99019.03;;;18.89;53.42
43814;BME280;29669;55.706;37.656;2023-07-13T09:44:58;99018.38;;;18.82;53.65
43814;BME280;29669;55.706;37.656;2023-07-13T09:47:38;99017.41;;;18.60;54.00
43814;BME280;29669;55.706;37.656;2023-07-13T09:50:09;99032.63;;;18.35;54.38
43814;BME280;29669;55.706;37.656;2023-07-13T09:52:45;99024.63;;;18.18;54.98
43814;BME280;29669;55.706;37.656;2023-07-13T09:55:37;99030.13;;;18.05;55.07
43814;BME280;29669;55.706;37.656;2023-07-13T09:58:15;99018.47;;;18.01;55.25
43814;BME280;29669;55.706;37.656;2023-07-13T10:01:12;99023.72;;;18.01;55.39
43814;BME280;29669;55.706;37.656;2023-07-13T10:03:56;99015.50;;;18.09;55.16
43814;BME280;29669;55.706;37.656;2023-07-13T10:06:24;99011.03;;;18.10;55.15
43814;BME280;29669;55.706;37.656;2023-07-13T10:08:56;99012.19;;;18.02;55.59
43814;BME280;29669;55.706;37.656;2023-07-13T10:11:29;99018.47;;;18.01;55.88
43814;BME280;29669;55.706;37.656;2023-07-13T10:14:03;99019.94;;;17.97;55.92
43814;BME280;29669;55.706;37.656;2023-07-13T10:16:38;99024.16;;;17.98;56.05
43814;BME280;29669;55.706;37.656;2023-07-13T10:19:13;99024.28;;;17.92;56.17
43814;BME280;29669;55.706;37.656;2023-07-13T10:21:53;99014.44;;;17.75;56.32
43814;BME280;29669;55.706;37.656;2023-07-13T10:24:25;99020.19;;;17.84;56.54
43814;BME280;29669;55.706;37.656;2023-07-13T10:27:17;99017.66;;;17.89;56.76
43814;BME280;29669;55.706;37.656;2023-07-13T10:32:24;99025.28;;;17.79;56.68
43814;BME280;29669;55.706;37.656;2023-07-13T10:34:55;99027.91;;;17.56;57.45
43814;BME280;29669;55.706;37.656;2023-07-13T10:37:55;99024.38;;;17.32;58.13
43814;BME280;29669;55.706;37.656;2023-07-13T10:40:30;99026.78;;;17.34;58.40
43814;BME280;29669;55.706;37.656;2023-07-13T10:43:09;99033.41;;;17.36;58.52
43814;BME280;29669;55.706;37.656;2023-07-13T10:49:45;99048.81;;;17.15;58.81
43814;BME280;29669;55.706;37.656;2023-07-13T10:54:54;99040.25;;;17.08;58.71
43814;BME280;29669;55.706;37.656;2023-07-13T11:03:55;99040.81;;;17.28;58.37
43814;BME280;29669;55.706;37.656;2023-07-13T11:07:52;99044.03;;;17.12;58.61
43814;BME280;29669;55.706;37.656;2023-07-13T11:58:31;99019.75;;;17.46;60.68
43814;BME280;29669;55.706;37.656;2023-07-13T12:01:42;99024.94;;;17.52;60.59
43814;BME280;29669;55.706;37.656;2023-07-13T12:05:24;99024.94;;;17.64;60.09
43814;BME280;29669;55.706;37.656;2023-07-13T12:07:54;99023.56;;;17.61;60.03
43814;BME280;29669;55.706;37.656;2023-07-13T12:10:35;99020.72;;;17.63;60.36
43814;BME280;29669;55.706;37.656;2023-07-13T12:13:27;99016.84;;;17.54;60.77
43814;BME280;29669;55.706;37.656;2023-07-13T12:15:57;99022.06;;;17.54;60.91
43814;BME280;29669;55.706;37.656;2023-07-13T12:18:30;99022.06;;;17.54;61.07
43814;BME280;29669;55.706;37.656;2023-07-13T12:25:00;99028.25;;;17.59;61.12
43814;BME280;29669;55.706;37.656;2023-07-13T12:28:38;99028.72;;;17.68;61.05
43814;BME280;29669;55.706;37.656;2023-07-13T12:40:20;99009.06;;;17.59;60.98
43814;BME280;29669;55.706;37.656;2023-07-13T12:42:54;99022.38;;;17.46;61.75
43814;BME280;29669;55.706;37.656;2023-07-13T12:45:25;99012.63;;;17.23;62.13
43814;BME280;29669;55.706;37.656;2023-07-13T12:47:57;99009.91;;;17.00;62.73
43814;BME280;29669;55.706;37.656;2023-07-13T12:50:46;99021.09;;;16.77;63.25
43814;BME280;29669;55.706;37.656;2023-07-13T12:53:23;99014.03;;;16.60;63.60
43814;BME280;29669;55.706;37.656;2023-07-13T12:56:27;98999.47;;;16.46;64.10
43814;BME280;29669;55.706;37.656;2023-07-13T12:59:04;99019.22;;;16.48;64.14
43814;BME280;29669;55.706;37.656;2023-07-13T13:01:41;98998.44;;;16.47;64.22
43814;BME280;29669;55.706;37.656;2023-07-13T13:04:42;99021.53;;;16.56;64.38
43814;BME280;29669;55.706;37.656;2023-07-13T13:07:42;98988.94;;;16.52;64.33
43814;BME280;29669;55.706;37.656;2023-07-13T13:10:14;99003.72;;;16.65;64.33
43814;BME280;29669;55.706;37.656;2023-07-13T13:12:52;99000.22;;;16.71;64.32
43814;BME280;29669;55.706;37.656;2023-07-13T13:15:26;98997.63;;;16.82;64.24
43814;BME280;29669;55.706;37.656;2023-07-13T13:18:36;98993.34;;;17.00;64.11
43814;BME280;29669;55.706;37.656;2023-07-13T13:21:11;99001.28;;;17.11;63.68
43814;BME280;29669;55.706;37.656;2023-07-13T13:23:47;99009.06;;;17.18;63.24
43814;BME280;29669;55.706;37.656;2023-07-13T13:27:59;99014.84;;;17.08;63.20
43814;BME280;29669;55.706;37.656;2023-07-13T13:30:33;99016.38;;;16.98;63.45
43814;BME280;29669;55.706;37.656;2023-07-13T13:33:01;99006.06;;;16.84;63.75
43814;BME280;29669;55.706;37.656;2023-07-13T13:35:31;99014.53;;;16.68;64.06
43814;BME280;29669;55.706;37.656;2023-07-13T13:37:59;99006.75;;;16.62;64.41
43814;BME280;29669;55.706;37.656;2023-07-13T13:40:30;99010.03;;;16.57;64.94
43814;BME280;29669;55.706;37.656;2023-07-13T13:42:59;98998.44;;;16.47;64.95
43814;BME280;29669;55.706;37.656;2023-07-13T13:45:31;98991.03;;;16.44;65.03
43814;BME280;29669;55.706;37.656;2023-07-13T13:47:59;98993.06;;;16.42;65.06
43814;BME280;29669;55.706;37.656;2023-07-13T13:50:57;98993.41;;;16.45;65.11
43814;BME280;29669;55.706;37.656;2023-07-13T13:53:28;98984.41;;;16.41;65.23
43814;BME280;29669;55.706;37.656;2023-07-13T14:00:05;98996.03;;;16.45;64.80
43814;BME280;29669;55.706;37.656;2023-07-13T14:02:33;99000.69;;;16.25;65.11
43814;BME280;29669;55.706;37.656;2023-07-13T14:05:06;99003.28;;;16.07;65.67
43814;BME280;29669;55.706;37.656;2023-07-13T14:07:35;98996.00;;;15.91;66.13
43814;BME280;29669;55.706;37.656;2023-07-13T14:10:12;98992.66;;;15.84;66.42
43814;BME280;29669;55.706;37.656;2023-07-13T14:12:50;98987.03;;;15.80;66.52
43814;BME280;29669;55.706;37.656;2023-07-13T14:15:28;98992.22;;;15.87;66.74
43814;BME280;29669;55.706;37.656;2023-07-13T14:18:07;99007.78;;;16.00;66.58
43814;BME280;29669;55.706;37.656;2023-07-13T14:20:49;98999.94;;;16.00;66.27
43814;BME280;29669;55.706;37.656;2023-07-13T14:23:20;98992.22;;;16.05;66.13
43814;BME280;29669;55.706;37.656;2023-07-13T14:25:49;98989.19;;;16.08;65.93
43814;BME280;29669;55.706;37.656;2023-07-13T14:28:25;98978.63;;;16.15;65.76
43814;BME280;29669;55.706;37.656;2023-07-13T14:30:56;98979.16;;;16.23;65.67
43814;BME280;29669;55.706;37.656;2023-07-13T14:33:24;98984.53;;;16.28;65.47
43814;BME280;29669;55.706;37.656;2023-07-13T14:35:54;98981.91;;;16.28;65.36
43814;BME280;29669;55.706;37.656;2023-07-13T14:38:34;98977.06;;;16.14;65.81
43814;BME280;29669;55.706;37.656;2023-07-13T14:41:15;98984.25;;;16.18;65.86
43814;BME280;29669;55.706;37.656;2023-07-13T14:43:44;98989.06;;;16.21;65.92
43814;BME280;29669;55.706;37.656;2023-07-13T14:46:30;98989.56;;;16.12;65.82
43814;BME280;29669;55.706;37.656;2023-07-13T14:49:30;98973.19;;;15.98;65.97
43814;BME280;29669;55.706;37.656;2023-07-13T14:52:13;98985.47;;;15.97;66.11
43814;BME280;29669;55.706;37.656;2023-07-13T14:54:42;98972.28;;;15.86;66.38
43814;BME280;29669;55.706;37.656;2023-07-13T14:57:17;98989.81;;;15.85;66.39
43814;BME280;29669;55.706;37.656;2023-07-13T14:59:49;98977.50;;;15.86;66.31
43814;BME280;29669;55.706;37.656;2023-07-13T15:02:34;98978.97;;;15.82;66.13
43814;BME280;29669;55.706;37.656;2023-07-13T15:05:20;98980.78;;;15.81;66.27
43814;BME280;29669;55.706;37.656;2023-07-13T15:07:53;98988.31;;;15.71;66.52
43814;BME280;29669;55.706;37.656;2023-07-13T15:10:24;98986.44;;;15.54;66.81
43814;BME280;29669;55.706;37.656;2023-07-13T15:13:12;98990.66;;;15.24;67.45
43814;BME280;29669;55.706;37.656;2023-07-13T15:15:45;98992.56;;;15.10;67.98
43814;BME280;29669;55.706;37.656;2023-07-13T15:18:15;98992.84;;;14.95;68.50
43814;BME280;29669;55.706;37.656;2023-07-13T15:20:45;98984.84;;;14.90;69.00
43814;BME280;29669;55.706;37.656;2023-07-13T15:23:22;98988.50;;;14.83;69.18
43814;BME280;29669;55.706;37.656;2023-07-13T15:26:15;98992.09;;;14.82;69.31
43814;BME280;29669;55.706;37.656;2023-07-13T15:28:46;98985.66;;;14.84;69.77